Time;durP1;ratioP1;P1;durP2;ratioP2;P2;SDS_P1;SDS_P2;PMS_P1;PMS_P2;Temp;Humidity;BMP_temperature;BMP_pressure;BME280_temperature;BME280_humidity;BME280_pressure;Samples;Min_cycle;Max_cycle;Signal;HPM_P1;HPM_P2
2023/01/04 00:00:18;;;;;;;10.90;6.65;;;;;;;;;;2097410;28;20148;-45
2023/01/04 00:01:20;;;;;;;12.02;7.32;;;;;;;;;;2097529;28;20052;-43
2023/01/04 00:02:21;;;;;;;11.98;7.13;;;;;;;;;;2097154;28;20382;-44
2023/01/04 00:03:23;;;;;;;13.50;8.23;;;;;;;;;;2097375;28;20048;-43
2023/01/04 00:04:24;;;;;;;10.70;6.47;;;;;;;;;;2097306;28;20048;-44
2023/01/04 00:05:25;;;;;;;12.75;6.90;;;;;;;;;;2097242;28;20044;-44
2023/01/04 00:06:26;;;;;;;15.13;7.50;;;;;;;;;;2097160;28;20628;-44
2023/01/04 00:07:27;;;;;;;11.15;7.43;;;;;;;;;;2097195;28;20044;-45
2023/01/04 00:08:29;;;;;;;11.85;7.68;;;;;;;;;;2097171;28;20044;-45
2023/01/04 00:09:30;;;;;;;10.75;7.10;;;;;;;;;;2097360;28;20049;-45
2023/01/04 00:10:31;;;;;;;9.80;5.77;;;;;;;;;;2097273;28;20135;-45
2023/01/04 00:11:32;;;;;;;13.68;7.88;;;;;;;;;;2097168;28;20665;-45
2023/01/04 00:12:34;;;;;;;11.80;6.68;;;;;;;;;;2097364;28;20048;-46
2023/01/04 00:13:35;;;;;;;13.82;7.72;;;;;;;;;;2097206;28;20391;-45
2023/01/04 00:14:36;;;;;;;15.80;7.27;;;;;;;;;;2097072;28;20048;-44
2023/01/04 00:15:37;;;;;;;11.80;7.43;;;;;;;;;;2097209;28;20781;-45
2023/01/04 00:16:38;;;;;;;12.50;7.23;;;;;;;;;;2097195;28;20049;-44
2023/01/04 00:17:39;;;;;;;11.57;6.82;;;;;;;;;;2097278;28;20808;-43
2023/01/04 00:18:41;;;;;;;12.73;7.20;;;;;;;;;;2097334;28;20061;-44
2023/01/04 00:19:43;;;;;;;10.20;7.65;;;;;;;;;;2097045;28;20485;-44
2023/01/04 00:20:43;;;;;;;13.50;8.00;;;;;;;;;;2097042;28;20421;-46
2023/01/04 00:21:44;;;;;;;12.35;8.88;;;;;;;;;;2097109;28;20041;-44
2023/01/04 00:22:45;;;;;;;17.50;9.90;;;;;;;;;;2098450;28;20049;-45
2023/01/04 00:23:48;;;;;;;16.47;10.33;;;;;;;;;;2098679;28;20052;-45
2023/01/04 00:24:49;;;;;;;17.67;9.60;;;;;;;;;;2095985;28;20060;-45
2023/01/04 00:25:50;;;;;;;20.20;11.37;;;;;;;;;;2090518;28;20048;-44
2023/01/04 00:26:51;;;;;;;23.35;10.77;;;;;;;;;;2090352;28;20102;-45
2023/01/04 00:27:52;;;;;;;17.47;9.77;;;;;;;;;;2090534;28;20053;-44
2023/01/04 00:28:54;;;;;;;14.50;7.88;;;;;;;;;;2090422;28;20045;-43
2023/01/04 00:29:55;;;;;;;;;;;;;;;;;;2091094;28;20059;-46
2023/01/04 00:31:00;;;;;;;11.52;7.28;;;;;;;;;;2090196;28;19921;-45
2023/01/04 00:32:01;;;;;;;13.50;8.23;;;;;;;;;;2090369;28;20220;-45
2023/01/04 00:33:02;;;;;;;11.25;7.05;;;;;;;;;;2090308;28;20045;-46
2023/01/04 00:34:04;;;;;;;13.73;7.50;;;;;;;;;;2090404;28;20055;-46
2023/01/04 00:35:05;;;;;;;11.00;6.70;;;;;;;;;;2090163;28;20049;-47
2023/01/04 00:36:07;;;;;;;11.33;7.13;;;;;;;;;;2092703;28;20536;-46
2023/01/04 00:37:08;;;;;;;;;;;;;;;;;;2098959;28;20066;-46
2023/01/04 00:38:09;;;;;;;11.65;6.63;;;;;;;;;;2098686;28;20334;-49
2023/01/04 00:39:14;;;;;;;9.80;6.55;;;;;;;;;;2098664;28;20128;-47
2023/01/04 00:40:15;;;;;;;13.05;6.50;;;;;;;;;;2098484;28;20508;-47
2023/01/04 00:41:16;;;;;;;9.97;6.97;;;;;;;;;;2098640;28;20040;-46
2023/01/04 00:42:37;;;;;;;12.18;6.93;;;;;;;;;;2098442;28;20040;-47
2023/01/04 00:43:38;;;;;;;10.05;6.80;;;;;;;;;;2098635;28;20048;-46
2023/01/04 00:44:39;;;;;;;8.70;6.13;;;;;;;;;;2098559;28;20059;-46
2023/01/04 00:45:42;;;;;;;10.73;6.05;;;;;;;;;;2098678;28;20055;-48
2023/01/04 00:46:43;;;;;;;9.27;6.03;;;;;;;;;;2098400;28;20379;-47
2023/01/04 00:47:44;;;;;;;10.60;5.97;;;;;;;;;;2098579;28;20103;-47
2023/01/04 00:48:45;;;;;;;8.73;5.87;;;;;;;;;;2098488;28;20265;-47
2023/01/04 00:49:50;;;;;;;8.57;5.82;;;;;;;;;;2098544;28;20087;-48
2023/01/04 00:50:51;;;;;;;8.73;5.40;;;;;;;;;;2098393;28;20040;-46
2023/01/04 00:51:52;;;;;;;11.68;6.43;;;;;;;;;;2098580;28;20051;-48
2023/01/04 00:52:53;;;;;;;13.23;5.82;;;;;;;;;;2097763;28;20114;-48
2023/01/04 00:53:54;;;;;;;11.83;6.27;;;;;;;;;;2098012;28;20053;-47
2023/01/04 00:54:55;;;;;;;8.73;5.72;;;;;;;;;;2097524;28;20045;-46
2023/01/04 00:55:58;;;;;;;8.35;4.95;;;;;;;;;;2098567;28;20094;-48
2023/01/04 00:57:00;;;;;;;7.05;5.47;;;;;;;;;;2098380;28;20048;-46
2023/01/04 00:58:01;;;;;;;8.73;5.43;;;;;;;;;;2098593;28;20520;-46
2023/01/04 00:59:02;;;;;;;8.52;4.97;;;;;;;;;;2098406;28;20448;-48
2023/01/04 01:00:04;;;;;;;7.85;5.63;;;;;;;;;;2098292;28;20048;-47
2023/01/04 01:01:05;;;;;;;9.32;4.93;;;;;;;;;;2098470;28;20041;-48
2023/01/04 01:02:06;;;;;;;9.40;5.63;;;;;;;;;;2098340;28;20504;-49
2023/01/04 01:03:08;;;;;;;6.57;5.43;;;;;;;;;;2098316;28;20041;-47
2023/01/04 01:04:10;;;;;;;9.65;4.90;;;;;;;;;;2098641;28;20048;-45
2023/01/04 01:05:12;;;;;;;7.70;5.85;;;;;;;;;;2098384;28;20246;-45
2023/01/04 01:06:13;;;;;;;11.27;5.82;;;;;;;;;;2098409;28;20452;-48
2023/01/04 01:07:14;;;;;;;7.80;4.82;;;;;;;;;;2098322;28;20045;-46
2023/01/04 01:08:24;;;;;;;9.02;5.72;;;;;;;;;;2098355;28;20486;-47
2023/01/04 01:09:25;;;;;;;7.65;4.35;;;;;;;;;;2098255;28;20113;-47
2023/01/04 01:10:26;;;;;;;8.15;5.10;;;;;;;;;;2098316;28;20052;-46
2023/01/04 01:11:28;;;;;;;12.43;6.07;;;;;;;;;;2098312;28;20055;-47
2023/01/04 01:12:29;;;;;;;8.60;5.30;;;;;;;;;;2098412;28;20067;-48
2023/01/04 01:13:30;;;;;;;7.90;4.87;;;;;;;;;;2098334;28;20190;-46
2023/01/04 01:14:31;;;;;;;8.40;5.40;;;;;;;;;;2098334;28;20059;-47
2023/01/04 01:15:33;;;;;;;9.77;5.20;;;;;;;;;;2098375;28;20465;-48
2023/01/04 01:16:35;;;;;;;8.55;4.80;;;;;;;;;;2098297;28;20048;-46
2023/01/04 01:17:56;;;;;;;7.80;5.50;;;;;;;;;;2098298;28;20102;-47
2023/01/04 01:18:57;;;;;;;7.17;4.40;;;;;;;;;;2098397;28;20117;-46
2023/01/04 01:19:58;;;;;;;8.05;5.10;;;;;;;;;;2098297;28;20052;-47
2023/01/04 01:21:03;;;;;;;7.40;4.67;;;;;;;;;;2098288;28;20071;-47
2023/01/04 01:22:04;;;;;;;6.45;4.22;;;;;;;;;;2098244;28;20425;-47
2023/01/04 01:23:05;;;;;;;8.00;4.40;;;;;;;;;;2098347;28;20093;-47
2023/01/04 01:24:06;;;;;;;6.33;3.87;;;;;;;;;;2098316;28;20148;-47
2023/01/04 01:25:07;;;;;;;7.97;4.60;;;;;;;;;;2093012;28;20041;-46
2023/01/04 01:26:12;;;;;;;7.00;4.63;;;;;;;;;;2089958;28;20486;-47
2023/01/04 01:27:13;;;;;;;7.45;4.18;;;;;;;;;;2089844;28;20040;-47
2023/01/04 01:28:14;;;;;;;5.13;3.20;;;;;;;;;;2090098;28;20310;-47
2023/01/04 01:29:15;;;;;;;7.97;4.35;;;;;;;;;;2089816;28;20041;-46
2023/01/04 01:30:16;;;;;;;8.35;4.60;;;;;;;;;;2090056;28;20427;-46
2023/01/04 01:31:18;;;;;;;6.88;4.13;;;;;;;;;;2090021;28;20049;-47
2023/01/04 01:32:19;;;;;;;8.30;4.75;;;;;;;;;;2091829;28;20053;-46
2023/01/04 01:33:20;;;;;;;7.50;3.45;;;;;;;;;;2097985;28;20121;-46
2023/01/04 01:34:21;;;;;;;7.63;4.60;;;;;;;;;;2097410;28;20052;-46
2023/01/04 01:35:22;;;;;;;8.25;4.60;;;;;;;;;;2098294;28;20044;-46
2023/01/04 01:36:25;;;;;;;6.85;4.25;;;;;;;;;;2098220;28;20049;-46
2023/01/04 01:37:26;;;;;;;8.05;3.83;;;;;;;;;;2098186;28;20055;-46
2023/01/04 01:38:27;;;;;;;9.97;4.33;;;;;;;;;;2098377;28;20466;-46
2023/01/04 01:39:28;;;;;;;9.80;4.38;;;;;;;;;;2098075;28;20512;-47
2023/01/04 01:40:29;;;;;;;8.60;4.47;;;;;;;;;;2098176;28;20079;-46
2023/01/04 01:41:32;;;;;;;7.30;3.80;;;;;;;;;;2098245;28;20113;-47
2023/01/04 01:42:33;;;;;;;7.85;4.90;;;;;;;;;;2098137;28;20054;-48
2023/01/04 01:43:52;;;;;;;9.43;4.87;;;;;;;;;;2098288;28;20161;-46
2023/01/04 01:44:58;;;;;;;6.28;3.30;;;;;;;;;;2097989;28;20108;-47
2023/01/04 01:45:59;;;;;;;5.72;3.72;;;;;;;;;;2098293;28;20435;-46
2023/01/04 01:47:00;;;;;;;6.25;4.13;;;;;;;;;;2098067;28;20496;-46
2023/01/04 01:48:04;;;;;;;6.72;4.20;;;;;;;;;;2098451;28;20048;-45
2023/01/04 01:49:09;;;;;;;7.45;4.28;;;;;;;;;;2098213;28;20041;-44
2023/01/04 01:50:18;;;;;;;10.05;4.07;;;;;;;;;;2098099;28;20044;-45
2023/01/04 01:51:19;;;;;;;5.10;3.60;;;;;;;;;;2098023;28;20060;-45
2023/01/04 01:52:23;;;;;;;6.10;3.38;;;;;;;;;;2098074;28;20056;-45
2023/01/04 01:53:25;;;;;;;6.45;4.07;;;;;;;;;;2098147;28;20500;-44
2023/01/04 01:54:30;;;;;;;5.60;4.20;;;;;;;;;;2098489;28;20059;-45
2023/01/04 01:55:32;;;;;;;5.53;4.03;;;;;;;;;;2098258;28;20049;-47
2023/01/04 01:56:35;;;;;;;5.95;4.00;;;;;;;;;;2098093;28;20057;-46
2023/01/04 01:57:36;;;;;;;5.10;3.67;;;;;;;;;;2097928;28;20484;-46
2023/01/04 01:58:39;;;;;;;5.35;3.53;;;;;;;;;;2098111;28;20049;-47
2023/01/04 01:59:41;;;;;;;5.80;3.80;;;;;;;;;;2098076;28;20063;-46
2023/01/04 02:00:42;;;;;;;6.13;3.90;;;;;;;;;;2097866;28;20044;-47
2023/01/04 02:01:43;;;;;;;5.63;3.67;;;;;;;;;;2098004;28;20351;-45
2023/01/04 02:02:49;;;;;;;5.18;3.75;;;;;;;;;;2098006;28;20163;-44
2023/01/04 02:03:50;;;;;;;6.03;3.63;;;;;;;;;;2098059;28;20052;-46
2023/01/04 02:04:52;;;;;;;5.00;3.28;;;;;;;;;;2097994;28;20044;-45
2023/01/04 02:05:53;;;;;;;7.20;3.90;;;;;;;;;;2097971;28;20486;-47
2023/01/04 02:06:56;;;;;;;6.97;3.72;;;;;;;;;;2097940;28;20053;-45
2023/01/04 02:07:58;;;;;;;7.97;3.15;;;;;;;;;;2098112;28;20044;-45
2023/01/04 02:08:58;;;;;;;;;;;;;;;;;;2098518;28;20044;-46
2023/01/04 02:10:00;;;;;;;6.35;3.38;;;;;;;;;;2097797;28;20404;-45
2023/01/04 02:11:01;;;;;;;8.38;4.38;;;;;;;;;;2097939;28;20052;-46
2023/01/04 02:12:02;;;;;;;11.02;3.08;;;;;;;;;;2097938;28;20044;-46
2023/01/04 02:13:05;;;;;;;6.80;4.50;;;;;;;;;;2098009;28;20077;-45
2023/01/04 02:15:28;;;;;;;8.32;4.00;;;;;;;;;;2098000;28;20056;-47
2023/01/04 02:16:35;;;;;;;6.50;4.05;;;;;;;;;;2097816;28;20533;-46
2023/01/04 02:17:41;;;;;;;8.40;4.32;;;;;;;;;;2098004;28;20048;-45
2023/01/04 02:18:44;;;;;;;7.93;3.88;;;;;;;;;;2097859;28;20470;-46
2023/01/04 02:19:55;;;;;;;10.50;3.97;;;;;;;;;;2097909;28;20045;-45
2023/01/04 02:21:00;;;;;;;6.95;4.07;;;;;;;;;;2097916;28;20056;-46
2023/01/04 02:22:20;;;;;;;7.25;3.80;;;;;;;;;;2098097;28;20048;-47
2023/01/04 02:23:39;;;;;;;7.75;4.30;;;;;;;;;;2098073;28;20444;-45
2023/01/04 02:24:49;;;;;;;7.47;4.65;;;;;;;;;;2096489;28;20052;-46
2023/01/04 02:25:59;;;;;;;8.35;4.85;;;;;;;;;;2089579;28;20486;-44
2023/01/04 02:27:27;;;;;;;8.18;4.30;;;;;;;;;;2089633;28;20106;-48
2023/01/04 02:28:35;;;;;;;7.63;4.82;;;;;;;;;;2090763;28;20095;-47
2023/01/04 02:29:52;;;;;;;6.63;4.40;;;;;;;;;;2097837;28;20044;-46
2023/01/04 02:31:12;;;;;;;5.53;3.28;;;;;;;;;;2097781;28;20052;-47
2023/01/04 02:32:17;;;;;;;6.50;4.40;;;;;;;;;;2097746;28;20557;-47
2023/01/04 02:33:30;;;;;;;8.20;4.25;;;;;;;;;;2097737;28;20052;-47
2023/01/04 02:34:37;;;;;;;6.63;3.95;;;;;;;;;;2097650;28;20052;-47
2023/01/04 02:35:41;;;;;;;11.35;5.18;;;;;;;;;;2097897;28;20044;-45
2023/01/04 02:36:47;;;;;;;6.93;3.63;;;;;;;;;;2097644;28;20049;-45
2023/01/04 02:37:50;;;;;;;7.93;4.35;;;;;;;;;;2097826;28;20059;-45
2023/01/04 02:39:01;;;;;;;6.45;4.60;;;;;;;;;;2097911;28;20052;-46
2023/01/04 02:40:07;;;;;;;5.63;3.70;;;;;;;;;;2097659;28;20040;-46
2023/01/04 02:41:13;;;;;;;9.15;4.50;;;;;;;;;;2097758;28;20040;-45
2023/01/04 02:42:18;;;;;;;7.03;3.70;;;;;;;;;;2097794;28;20040;-46
2023/01/04 02:44:53;;;;;;;5.85;3.92;;;;;;;;;;2097745;28;20154;-45
2023/01/04 02:45:56;;;;;;;4.82;3.20;;;;;;;;;;2097878;28;20082;-44
2023/01/04 02:47:01;;;;;;;6.63;4.30;;;;;;;;;;2097785;28;20048;-43
2023/01/04 02:50:49;;;;;;;6.28;3.95;;;;;;;;;;2097762;28;20040;-44
2023/01/04 02:51:50;;;;;;;6.15;4.22;;;;;;;;;;2097846;28;20052;-42
2023/01/04 02:52:51;;;;;;;7.10;3.53;;;;;;;;;;2097548;28;20401;-44
2023/01/04 02:53:53;;;;;;;7.75;4.05;;;;;;;;;;2097840;28;20049;-44
2023/01/04 02:54:55;;;;;;;6.47;3.83;;;;;;;;;;2097488;28;20048;-44
2023/01/04 02:56:03;;;;;;;6.43;4.20;;;;;;;;;;2097912;28;20048;-44
2023/01/04 02:57:10;;;;;;;6.90;3.70;;;;;;;;;;2097567;28;20056;-44
2023/01/04 02:58:17;;;;;;;6.15;4.45;;;;;;;;;;2097819;28;20413;-45
2023/01/04 02:59:32;;;;;;;6.45;3.55;;;;;;;;;;2097499;28;20055;-43
2023/01/04 03:06:14;;;;;;;5.57;3.53;;;;;;;;;;2097622;28;20440;-44
2023/01/04 03:06:16;;;;;;;6.38;3.83;;;;;;;;;;2097579;28;20040;-47
2023/01/04 03:07:23;;;;;;;13.10;5.00;;;;;;;;;;2097946;28;20040;-46
2023/01/04 03:08:27;;;;;;;8.55;3.95;;;;;;;;;;2097445;28;20573;-45
2023/01/04 03:09:31;;;;;;;5.90;3.92;;;;;;;;;;2097763;28;20059;-46
2023/01/04 03:10:34;;;;;;;7.28;3.50;;;;;;;;;;2097499;28;20049;-47
2023/01/04 03:13:03;;;;;;;7.07;4.90;;;;;;;;;;2097619;28;20405;-47
2023/01/04 03:14:07;;;;;;;7.70;4.63;;;;;;;;;;2097643;28;20049;-46
2023/01/04 03:15:30;;;;;;;6.53;4.20;;;;;;;;;;2097821;28;20048;-46
2023/01/04 03:16:32;;;;;;;9.13;4.75;;;;;;;;;;2097547;28;20056;-46
2023/01/04 03:17:36;;;;;;;5.10;3.78;;;;;;;;;;2097714;28;20041;-46
2023/01/04 03:18:40;;;;;;;8.48;4.70;;;;;;;;;;2097520;28;20493;-46
2023/01/04 03:19:50;;;;;;;7.32;4.32;;;;;;;;;;2097650;28;20401;-47
2023/01/04 03:20:53;;;;;;;6.65;3.90;;;;;;;;;;2097574;28;20478;-46
2023/01/04 03:21:54;;;;;;;6.85;4.20;;;;;;;;;;2097440;28;20102;-47
2023/01/04 03:35:26;;;;;;;5.70;3.90;;;;;;;;;;2097536;28;20044;-48
2023/01/04 03:36:36;;;;;;;6.50;3.97;;;;;;;;;;2097455;28;20048;-45
2023/01/04 03:37:42;;;;;;;7.15;3.70;;;;;;;;;;2097402;28;20045;-45
2023/01/04 03:48:33;;;;;;;6.30;3.42;;;;;;;;;;2097553;28;20048;-43
2023/01/04 03:49:39;;;;;;;9.43;4.43;;;;;;;;;;2097544;28;20421;-43
2023/01/04 03:50:41;;;;;;;8.32;4.40;;;;;;;;;;2097460;28;20048;-43
2023/01/04 03:51:43;;;;;;;7.97;4.72;;;;;;;;;;2097178;28;20049;-44
2023/01/04 03:52:45;;;;;;;12.55;5.03;;;;;;;;;;2097265;28;20052;-44
2023/01/04 03:53:50;;;;;;;6.35;4.05;;;;;;;;;;2097348;28;20048;-44
2023/01/04 03:54:52;;;;;;;6.25;4.85;;;;;;;;;;2097410;28;20052;-46
2023/01/04 03:55:54;;;;;;;8.20;4.15;;;;;;;;;;2097208;28;20093;-46
2023/01/04 03:56:55;;;;;;;;;;;;;;;;;;2097637;28;20056;-46
2023/01/04 03:57:57;;;;;;;7.03;3.80;;;;;;;;;;2098743;28;20039;-46
2023/01/04 03:58:59;;;;;;;7.88;4.47;;;;;;;;;;2098777;28;20401;-46
2023/01/04 04:00:02;;;;;;;8.20;4.85;;;;;;;;;;2098771;28;20449;-47
2023/01/04 04:01:03;;;;;;;9.15;4.28;;;;;;;;;;2098743;28;20044;-48
2023/01/04 04:02:07;;;;;;;10.70;5.90;;;;;;;;;;2098746;28;20449;-46
2023/01/04 04:03:08;;;;;;;7.00;3.70;;;;;;;;;;2098858;28;20049;-47
2023/01/04 04:08:29;;;;;;;9.30;4.45;;;;;;;;;;2098878;28;20097;-45
2023/01/04 04:09:30;;;;;;;6.88;4.20;;;;;;;;;;2098735;28;20045;-45
2023/01/04 04:10:31;;;;;;;8.65;5.20;;;;;;;;;;2099036;28;20048;-46
2023/01/04 04:11:32;;;;;;;10.02;3.85;;;;;;;;;;2098859;28;20067;-43
2023/01/04 04:12:33;;;;;;;11.65;5.68;;;;;;;;;;2098738;28;20140;-43
2023/01/04 04:13:34;;;;;;;7.22;5.05;;;;;;;;;;2098697;28;20410;-43
2023/01/04 04:14:35;;;;;;;9.23;4.55;;;;;;;;;;2098629;28;20052;-44
2023/01/04 04:15:36;;;;;;;9.32;5.20;;;;;;;;;;2098682;28;20055;-43
2023/01/04 04:16:37;;;;;;;9.77;4.50;;;;;;;;;;2098821;28;20048;-43
2023/01/04 04:17:38;;;;;;;8.10;5.60;;;;;;;;;;2098941;28;20049;-45
2023/01/04 04:18:40;;;;;;;8.00;4.50;;;;;;;;;;2098732;28;20127;-45
2023/01/04 04:19:41;;;;;;;8.82;5.05;;;;;;;;;;2098772;28;20049;-46
2023/01/04 04:20:42;;;;;;;8.25;4.15;;;;;;;;;;2098498;28;20055;-46
2023/01/04 04:21:43;;;;;;;11.35;6.18;;;;;;;;;;2098495;28;20449;-46
2023/01/04 04:22:44;;;;;;;8.10;4.30;;;;;;;;;;2098586;28;20058;-46
2023/01/04 04:23:45;;;;;;;8.83;4.60;;;;;;;;;;2098843;28;20513;-46
2023/01/04 04:24:46;;;;;;;7.95;5.50;;;;;;;;;;2096184;28;20048;-46
2023/01/04 04:25:47;;;;;;;7.90;4.77;;;;;;;;;;2090344;28;20052;-46
2023/01/04 04:28:08;;;;;;;12.35;5.57;;;;;;;;;;2090481;28;20045;-45
2023/01/04 04:29:09;;;;;;;8.13;4.78;;;;;;;;;;2090176;28;20501;-45
2023/01/04 04:30:11;;;;;;;8.20;5.23;;;;;;;;;;2090277;28;20128;-45
2023/01/04 04:31:12;;;;;;;7.90;5.15;;;;;;;;;;2090380;28;20068;-45
2023/01/04 04:32:13;;;;;;;9.00;4.63;;;;;;;;;;2090371;28;20103;-46
2023/01/04 04:33:14;;;;;;;10.82;6.10;;;;;;;;;;2090305;28;20041;-45
2023/01/04 04:34:15;;;;;;;9.55;5.88;;;;;;;;;;2090399;28;20044;-47
2023/01/04 04:35:16;;;;;;;11.02;4.07;;;;;;;;;;2090615;28;20102;-43
2023/01/04 04:36:18;;;;;;;10.13;5.97;;;;;;;;;;2090397;28;20087;-45
2023/01/04 04:37:19;;;;;;;9.88;5.75;;;;;;;;;;2090206;28;20375;-46
2023/01/04 04:38:20;;;;;;;8.68;5.22;;;;;;;;;;2090337;28;20175;-45
2023/01/04 04:39:21;;;;;;;10.60;6.13;;;;;;;;;;2090223;28;20056;-46
2023/01/04 04:41:42;;;;;;;8.38;5.13;;;;;;;;;;2090367;28;20048;-46
2023/01/04 04:42:44;;;;;;;8.85;5.45;;;;;;;;;;2090190;28;20053;-46
2023/01/04 04:43:45;;;;;;;9.90;5.28;;;;;;;;;;2090241;28;20406;-45
2023/01/04 04:44:46;;;;;;;7.50;5.63;;;;;;;;;;2090185;28;20139;-46
2023/01/04 04:45:47;;;;;;;9.07;5.60;;;;;;;;;;2090209;28;20056;-45
2023/01/04 04:46:48;;;;;;;10.77;5.13;;;;;;;;;;2090267;28;20080;-43
2023/01/04 04:47:49;;;;;;;9.48;6.18;;;;;;;;;;2095586;28;20485;-43
2023/01/04 04:48:51;;;;;;;9.15;4.40;;;;;;;;;;2098574;28;20048;-43
2023/01/04 04:49:51;;;;;;;8.27;6.03;;;;;;;;;;2098460;28;20044;-43
2023/01/04 04:50:53;;;;;;;7.85;4.63;;;;;;;;;;2098415;28;20040;-43
2023/01/04 04:51:54;;;;;;;10.85;5.47;;;;;;;;;;2097860;28;20047;-44
2023/01/04 04:52:55;;;;;;;9.02;5.10;;;;;;;;;;2098415;28;20490;-44
2023/01/04 04:53:57;;;;;;;9.60;6.10;;;;;;;;;;2098438;28;20127;-44
2023/01/04 04:54:58;;;;;;;9.73;4.80;;;;;;;;;;2098559;28;20472;-44
2023/01/04 04:55:59;;;;;;;9.13;4.93;;;;;;;;;;2098512;28;20048;-45
2023/01/04 04:57:00;;;;;;;9.90;6.15;;;;;;;;;;2098431;28;20082;-44
2023/01/04 04:58:01;;;;;;;7.50;4.90;;;;;;;;;;2098914;28;20052;-47
2023/01/04 04:59:02;;;;;;;9.30;5.93;;;;;;;;;;2098574;28;20484;-45
2023/01/04 05:00:03;;;;;;;7.68;4.35;;;;;;;;;;2098658;28;20055;-45
2023/01/04 05:01:04;;;;;;;8.02;5.20;;;;;;;;;;2098315;28;20051;-46
2023/01/04 05:02:05;;;;;;;10.15;6.50;;;;;;;;;;2098511;28;20102;-47
2023/01/04 05:03:08;;;;;;;7.53;4.55;;;;;;;;;;2098342;28;20560;-46
2023/01/04 05:04:13;;;;;;;;;;;;;;;;;;2098821;28;20045;-47
2023/01/04 05:05:14;;;;;;;9.05;4.90;;;;;;;;;;2098345;28;19943;-46
2023/01/04 05:06:15;;;;;;;7.13;4.78;;;;;;;;;;2098371;28;20059;-46
2023/01/04 05:07:17;;;;;;;7.78;6.30;;;;;;;;;;2098446;28;20056;-43
2023/01/04 05:08:17;;;;;;;13.52;4.72;;;;;;;;;;2098651;28;20055;-44
2023/01/04 05:09:19;;;;;;;7.83;5.47;;;;;;;;;;2098348;28;20147;-45
2023/01/04 05:10:19;;;;;;;7.95;4.50;;;;;;;;;;2098220;28;20382;-43
2023/01/04 05:12:58;;;;;;;8.30;6.00;;;;;;;;;;2098725;28;20105;-44
2023/01/04 05:13:00;;;;;;;8.93;5.43;;;;;;;;;;2098177;28;20048;-43
2023/01/04 05:14:01;;;;;;;8.52;5.13;;;;;;;;;;2098449;28;20056;-44
2023/01/04 05:15:02;;;;;;;10.27;5.97;;;;;;;;;;2098339;28;20041;-44
2023/01/04 05:16:03;;;;;;;7.47;4.50;;;;;;;;;;2098318;28;20040;-44
2023/01/04 05:17:05;;;;;;;7.93;5.68;;;;;;;;;;2098155;28;20059;-44
2023/01/04 05:18:07;;;;;;;10.70;5.70;;;;;;;;;;2098444;28;20044;-45
2023/01/04 05:19:07;;;;;;;7.97;5.32;;;;;;;;;;2098179;28;20288;-44
2023/01/04 05:20:09;;;;;;;9.40;6.13;;;;;;;;;;2098397;28;20044;-43
2023/01/04 05:21:10;;;;;;;10.00;5.90;;;;;;;;;;2098176;28;20074;-46
2023/01/04 05:22:14;;;;;;;10.05;5.38;;;;;;;;;;2098335;28;20044;-44
2023/01/04 05:23:17;;;;;;;11.48;6.63;;;;;;;;;;2098304;28;20060;-44
2023/01/04 05:24:18;;;;;;;9.40;5.05;;;;;;;;;;2098216;28;20098;-44
2023/01/04 05:25:19;;;;;;;8.90;6.43;;;;;;;;;;2091479;28;20044;-44
2023/01/04 05:26:20;;;;;;;8.77;5.55;;;;;;;;;;2090174;28;20056;-46
2023/01/04 05:27:21;;;;;;;9.07;5.78;;;;;;;;;;2090011;28;20049;-45
2023/01/04 05:28:22;;;;;;;7.82;4.63;;;;;;;;;;2090026;28;20489;-46
2023/01/04 05:30:52;;;;;;;8.00;4.60;;;;;;;;;;2089909;28;20052;-46
2023/01/04 05:31:53;;;;;;;8.18;5.65;;;;;;;;;;2089964;28;20064;-47
2023/01/04 05:32:54;;;;;;;7.97;4.73;;;;;;;;;;2090004;28;20055;-46
2023/01/04 05:33:55;;;;;;;11.15;6.43;;;;;;;;;;2090062;28;20297;-46
2023/01/04 05:34:56;;;;;;;8.43;4.77;;;;;;;;;;2089781;28;20474;-45
2023/01/04 05:35:58;;;;;;;10.60;5.63;;;;;;;;;;2090000;28;20211;-46
2023/01/04 05:36:59;;;;;;;8.45;5.95;;;;;;;;;;2089754;28;20107;-46
2023/01/04 05:38:00;;;;;;;10.05;5.55;;;;;;;;;;2089809;28;20115;-46
2023/01/04 05:39:02;;;;;;;8.30;5.32;;;;;;;;;;2089865;28;20186;-47
2023/01/04 05:40:03;;;;;;;10.18;4.53;;;;;;;;;;2089791;28;20402;-46
2023/01/04 05:42:23;;;;;;;8.55;4.47;;;;;;;;;;2089852;28;20064;-46
2023/01/04 05:42:26;;;;;;;7.53;4.70;;;;;;;;;;2089994;28;20056;-46
2023/01/04 05:43:28;;;;;;;8.90;5.55;;;;;;;;;;2090386;28;20045;-44
2023/01/04 05:44:28;;;;;;;7.53;4.18;;;;;;;;;;2098083;28;20426;-45
2023/01/04 05:45:30;;;;;;;8.13;5.50;;;;;;;;;;2098223;28;20045;-44
2023/01/04 05:46:31;;;;;;;7.22;5.25;;;;;;;;;;2098121;28;20052;-44
2023/01/04 05:47:32;;;;;;;7.35;4.75;;;;;;;;;;2098207;28;20450;-43
2023/01/04 05:48:33;;;;;;;7.93;5.70;;;;;;;;;;2098064;28;20405;-43
2023/01/04 05:49:34;;;;;;;7.80;4.38;;;;;;;;;;2098144;28;20049;-43
2023/01/04 05:50:35;;;;;;;9.02;5.10;;;;;;;;;;2098030;28;20387;-43
2023/01/04 05:51:38;;;;;;;5.90;4.03;;;;;;;;;;2098284;28;20059;-46
2023/01/04 05:52:38;;;;;;;9.35;5.43;;;;;;;;;;2097995;28;20060;-43
2023/01/04 05:53:40;;;;;;;7.90;5.23;;;;;;;;;;2098311;28;20118;-45
2023/01/04 05:54:41;;;;;;;9.90;5.15;;;;;;;;;;2097969;28;20102;-43
2023/01/04 05:55:42;;;;;;;5.63;4.13;;;;;;;;;;2098072;28;20401;-43
2023/01/04 05:56:43;;;;;;;9.93;5.32;;;;;;;;;;2097984;28;20052;-44
2023/01/04 05:57:44;;;;;;;7.90;4.25;;;;;;;;;;2098015;28;20044;-44
2023/01/04 05:58:45;;;;;;;7.82;5.30;;;;;;;;;;2097961;28;20052;-43
2023/01/04 05:59:46;;;;;;;7.57;5.00;;;;;;;;;;2098067;28;20052;-43
2023/01/04 06:00:47;;;;;;;8.23;5.00;;;;;;;;;;2097986;28;20490;-44
2023/01/04 06:01:49;;;;;;;7.80;4.82;;;;;;;;;;2097977;28;20045;-44
2023/01/04 06:02:51;;;;;;;6.40;4.75;;;;;;;;;;2098132;28;20045;-43
2023/01/04 06:03:52;;;;;;;7.25;5.07;;;;;;;;;;2098121;28;20073;-44
2023/01/04 06:04:53;;;;;;;10.43;5.57;;;;;;;;;;2097872;28;20045;-44
2023/01/04 06:06:00;;;;;;;7.50;4.30;;;;;;;;;;2098105;28;20072;-45
2023/01/04 06:07:00;;;;;;;7.13;5.40;;;;;;;;;;2098194;28;20044;-46
2023/01/04 06:08:02;;;;;;;8.67;5.83;;;;;;;;;;2098131;28;20124;-46
2023/01/04 06:09:03;;;;;;;7.97;5.50;;;;;;;;;;2098108;28;20041;-46
2023/01/04 06:10:05;;;;;;;8.57;4.47;;;;;;;;;;2098014;28;20487;-46
2023/01/04 06:11:06;;;;;;;8.00;4.78;;;;;;;;;;2098223;28;20044;-44
2023/01/04 06:12:08;;;;;;;7.33;5.17;;;;;;;;;;2098179;28;20429;-44
2023/01/04 06:13:09;;;;;;;8.18;5.55;;;;;;;;;;2098139;28;20040;-45
2023/01/04 06:14:10;;;;;;;7.97;4.63;;;;;;;;;;2097739;28;20045;-44
2023/01/04 06:15:11;;;;;;;8.98;5.68;;;;;;;;;;2098127;28;20055;-44
2023/01/04 06:16:12;;;;;;;8.48;5.57;;;;;;;;;;2098016;28;20049;-44
2023/01/04 06:17:13;;;;;;;9.38;5.63;;;;;;;;;;2097882;28;20149;-45
2023/01/04 06:18:14;;;;;;;10.40;6.15;;;;;;;;;;2097810;28;20510;-44
2023/01/04 06:19:15;;;;;;;8.63;4.88;;;;;;;;;;2097850;28;20055;-44
2023/01/04 06:20:16;;;;;;;10.23;5.72;;;;;;;;;;2097199;28;20436;-44
2023/01/04 06:21:17;;;;;;;9.90;6.25;;;;;;;;;;2098181;28;20040;-46
2023/01/04 06:22:19;;;;;;;10.77;5.78;;;;;;;;;;2098068;28;20094;-45
2023/01/04 06:23:20;;;;;;;10.40;6.90;;;;;;;;;;2098052;28;20051;-47
2023/01/04 06:24:21;;;;;;;9.93;5.20;;;;;;;;;;2097996;28;20045;-43
2023/01/04 06:25:22;;;;;;;11.32;6.75;;;;;;;;;;2091092;28;20053;-46
2023/01/04 06:26:23;;;;;;;11.25;6.55;;;;;;;;;;2089559;28;20049;-46
2023/01/04 06:27:24;;;;;;;12.77;8.00;;;;;;;;;;2089653;28;20056;-46
2023/01/04 06:28:26;;;;;;;9.30;5.30;;;;;;;;;;2089431;28;20409;-45
2023/01/04 06:29:27;;;;;;;13.48;7.20;;;;;;;;;;2091013;28;20049;-46
2023/01/04 06:30:28;;;;;;;10.88;5.88;;;;;;;;;;2098085;28;20049;-44
2023/01/04 06:31:29;;;;;;;12.20;7.28;;;;;;;;;;2097814;28;20054;-45
2023/01/04 06:32:30;;;;;;;14.60;5.60;;;;;;;;;;2097871;28;20072;-44
2023/01/04 06:33:32;;;;;;;10.70;7.38;;;;;;;;;;2098109;28;20316;-44
2023/01/04 06:34:33;;;;;;;9.88;5.60;;;;;;;;;;2097814;28;20049;-46
2023/01/04 06:35:34;;;;;;;10.25;6.50;;;;;;;;;;2098006;28;20056;-44
2023/01/04 06:36:35;;;;;;;12.07;5.32;;;;;;;;;;2097724;28;20418;-44
2023/01/04 06:37:37;;;;;;;12.43;6.60;;;;;;;;;;2097749;28;20131;-44
2023/01/04 06:38:38;;;;;;;9.75;5.75;;;;;;;;;;2097822;28;20055;-44
2023/01/04 06:39:39;;;;;;;9.82;6.55;;;;;;;;;;2097696;28;20049;-44
2023/01/04 06:40:40;;;;;;;9.43;6.10;;;;;;;;;;2089586;28;20045;-44
2023/01/04 06:41:41;;;;;;;12.52;5.95;;;;;;;;;;2089460;28;20048;-44
2023/01/04 06:42:45;;;;;;;8.75;6.40;;;;;;;;;;2089524;28;20056;-44
2023/01/04 06:43:46;;;;;;;8.35;4.82;;;;;;;;;;2089622;28;20056;-44
2023/01/04 06:44:47;;;;;;;11.40;6.05;;;;;;;;;;2089478;28;20052;-44
2023/01/04 06:45:48;;;;;;;9.30;6.10;;;;;;;;;;2089590;28;20088;-44
2023/01/04 06:46:49;;;;;;;9.98;5.32;;;;;;;;;;2089368;28;20063;-44
2023/01/04 06:47:50;;;;;;;12.35;5.97;;;;;;;;;;2089526;28;20045;-45
2023/01/04 06:48:52;;;;;;;8.10;5.78;;;;;;;;;;2089561;28;20056;-46
2023/01/04 06:49:53;;;;;;;;;;;;;;;;;;2090153;28;20052;-46
2023/01/04 06:50:54;;;;;;;8.07;4.60;;;;;;;;;;2089275;28;20007;-47
2023/01/04 06:51:55;;;;;;;11.43;5.55;;;;;;;;;;2089584;28;20092;-48
2023/01/04 06:52:56;;;;;;;8.93;5.95;;;;;;;;;;2089662;28;20045;-47
2023/01/04 06:53:57;;;;;;;8.10;4.93;;;;;;;;;;2089501;28;20127;-46
2023/01/04 06:54:58;;;;;;;9.90;6.22;;;;;;;;;;2089357;28;20045;-46
2023/01/04 06:56:01;;;;;;;9.65;5.78;;;;;;;;;;2089410;28;20130;-47
2023/01/04 06:57:02;;;;;;;11.48;5.57;;;;;;;;;;2089626;28;20049;-45